createdAt,value
2017-03-24T00:00:47.771Z,1016.84
2017-03-24T00:01:49.014Z,1016.84
2017-03-24T00:02:50.265Z,1016.88
2017-03-24T00:03:51.530Z,1016.9
2017-03-24T00:04:52.771Z,1016.9
2017-03-24T00:05:54.082Z,1017.01
2017-03-24T00:06:55.426Z,1017.02
2017-03-24T00:07:56.750Z,1017.05
2017-03-24T00:08:58.058Z,1017
2017-03-24T00:09:59.252Z,1017.07
2017-03-24T00:11:00.527Z,1017.13
2017-03-24T00:12:01.867Z,1017.1
2017-03-24T00:13:03.136Z,1017.11
2017-03-24T00:14:04.368Z,1017.13
2017-03-24T00:15:05.644Z,1017.13
2017-03-24T00:16:06.871Z,1017.16
2017-03-24T00:17:08.144Z,1017.16
2017-03-24T00:18:09.424Z,1017.13
2017-03-24T00:19:10.675Z,1017.19
2017-03-24T00:20:12.040Z,1017.16
2017-03-24T00:21:13.288Z,1017.17
2017-03-24T00:22:14.527Z,1017.16
2017-03-24T00:23:15.772Z,1017.19
2017-03-24T00:24:17.011Z,1017.2
2017-03-24T00:25:18.244Z,1017.27
2017-03-24T00:26:19.566Z,1017.31
2017-03-24T00:27:20.865Z,1017.31
2017-03-24T00:28:22.087Z,1017.31
2017-03-24T00:29:23.325Z,1017.38
2017-03-24T00:30:24.558Z,1017.32
2017-03-24T00:31:25.834Z,1017.4
2017-03-24T00:32:27.071Z,1017.34
2017-03-24T00:33:28.306Z,1017.41
2017-03-24T00:34:29.564Z,1017.42
2017-03-24T00:35:30.837Z,1017.45
2017-03-24T00:36:32.185Z,1017.4
2017-03-24T00:37:33.457Z,1017.42
2017-03-24T00:38:34.772Z,1017.44
2017-03-24T00:39:35.981Z,1017.43
2017-03-24T00:40:37.255Z,1017.46
2017-03-24T00:41:38.491Z,1017.43
2017-03-24T00:42:39.721Z,1017.44
2017-03-24T00:43:40.962Z,1017.48
2017-03-24T00:44:42.211Z,1017.49
2017-03-24T00:45:43.457Z,1017.49
2017-03-24T00:46:44.790Z,1017.52
2017-03-24T00:47:46.030Z,1017.53
2017-03-24T00:48:47.310Z,1017.58
2017-03-24T00:49:48.567Z,1017.56
2017-03-24T00:50:49.817Z,1017.53
2017-03-24T00:51:51.077Z,1017.56
2017-03-24T00:52:52.307Z,1017.51
2017-03-24T00:53:53.554Z,1017.51
2017-03-24T00:54:54.781Z,1017.49
2017-03-24T00:55:56.039Z,1017.45
2017-03-24T00:56:57.340Z,1017.48
2017-03-24T00:57:58.570Z,1017.45
2017-03-24T00:58:59.817Z,1017.45
2017-03-24T01:00:01.158Z,1017.4
2017-03-24T01:01:02.398Z,1017.37
2017-03-24T01:02:03.667Z,1017.41
2017-03-24T01:03:04.894Z,1017.39
2017-03-24T01:04:06.179Z,1017.39
2017-03-24T01:05:07.474Z,1017.42
2017-03-24T01:06:08.713Z,1017.4
2017-03-24T01:07:09.952Z,1017.36
2017-03-24T01:08:11.202Z,1017.34
2017-03-24T01:09:12.494Z,1017.32
2017-03-24T01:10:13.763Z,1017.32
2017-03-24T01:11:15.030Z,1017.27
2017-03-24T01:12:16.265Z,1017.32
2017-03-24T01:13:17.518Z,1017.33
2017-03-24T01:14:18.759Z,1017.21
2017-03-24T01:15:20.020Z,1017.27
2017-03-24T01:16:21.332Z,1017.24
2017-03-24T01:17:22.514Z,1017.25
2017-03-24T01:18:23.809Z,1017.26
2017-03-24T01:19:25.062Z,1017.23
2017-03-24T01:20:26.313Z,1017.18
2017-03-24T01:21:27.582Z,1017.16
2017-03-24T01:22:28.856Z,1017.18
2017-03-24T01:23:30.129Z,1017.19
2017-03-24T01:24:31.401Z,1017.13
2017-03-24T01:25:32.624Z,1017.15
2017-03-24T01:26:33.857Z,1017.22
2017-03-24T01:27:35.094Z,1017.2
2017-03-24T01:28:36.345Z,1017.23
2017-03-24T01:29:37.709Z,1017.22
2017-03-24T01:30:39.198Z,1017.22
2017-03-24T01:31:40.451Z,1017.18
2017-03-24T01:32:41.726Z,1017.25
2017-03-24T01:33:42.925Z,1017.21
2017-03-24T01:34:44.220Z,1017.21
2017-03-24T01:35:45.591Z,1017.27
2017-03-24T01:36:46.869Z,1017.31
2017-03-24T01:37:48.108Z,1017.34
2017-03-24T01:38:49.344Z,1017.32
2017-03-24T01:39:50.592Z,1017.41
2017-03-24T01:40:51.894Z,1017.38
2017-03-24T01:41:53.167Z,1017.38
2017-03-24T01:42:54.463Z,1017.41
2017-03-24T01:43:55.646Z,1017.38
2017-03-24T01:44:56.941Z,1017.43
2017-03-24T01:45:58.221Z,1017.43
2017-03-24T01:46:59.504Z,1017.42
2017-03-24T01:48:00.765Z,1017.47
2017-03-24T01:49:01.998Z,1017.49
2017-03-24T01:50:03.334Z,1017.47
2017-03-24T01:51:04.593Z,1017.51
2017-03-24T01:52:05.815Z,1017.45
2017-03-24T01:53:07.188Z,1017.48
2017-03-24T01:54:08.451Z,1017.51
2017-03-24T01:55:09.698Z,1017.5
2017-03-24T01:56:10.941Z,1017.56
2017-03-24T01:57:12.222Z,1017.58
2017-03-24T01:58:13.503Z,1017.6
2017-03-24T01:59:14.709Z,1017.59
2017-03-24T02:00:16.070Z,1017.61
2017-03-24T02:01:17.286Z,1017.65
2017-03-24T02:02:18.539Z,1017.7
2017-03-24T02:03:19.766Z,1017.61
2017-03-24T02:04:20.999Z,1017.64
2017-03-24T02:05:22.298Z,1017.63
2017-03-24T02:06:23.538Z,1017.69
2017-03-24T02:07:24.781Z,1017.67
2017-03-24T02:08:26.049Z,1017.7
2017-03-24T02:09:27.274Z,1017.67
2017-03-24T02:10:28.492Z,1017.69
2017-03-24T02:11:29.753Z,1017.67
2017-03-24T02:12:31.006Z,1017.73
2017-03-24T02:13:32.232Z,1017.75
2017-03-24T02:14:33.545Z,1017.8
2017-03-24T02:15:34.781Z,1017.85
2017-03-24T02:16:36.026Z,1017.87
2017-03-24T02:17:37.295Z,1017.87
2017-03-24T02:18:38.520Z,1017.85
2017-03-24T02:19:39.846Z,1017.9
2017-03-24T02:20:41.140Z,1017.96
2017-03-24T02:21:42.385Z,1017.84
2017-03-24T02:22:43.622Z,1017.87
2017-03-24T02:23:44.861Z,1017.94
2017-03-24T02:24:46.093Z,1017.92
2017-03-24T02:25:47.666Z,1017.97
2017-03-24T02:26:48.823Z,1017.97
2017-03-24T02:27:50.040Z,1017.97
2017-03-24T02:28:51.326Z,1018.02
2017-03-24T02:29:52.553Z,1018.01
2017-03-24T02:30:53.936Z,1018.05
2017-03-24T02:31:55.207Z,1018.02
2017-03-24T02:32:56.413Z,1018.09
2017-03-24T02:33:57.659Z,1018.11
2017-03-24T02:34:58.899Z,1018.06
2017-03-24T02:36:00.138Z,1018.13
2017-03-24T02:37:01.381Z,1018.14
2017-03-24T02:38:02.619Z,1018.1
2017-03-24T02:39:03.862Z,1018.18
2017-03-24T02:40:05.097Z,1018.17
2017-03-24T02:41:06.375Z,1018.26
2017-03-24T02:42:07.612Z,1018.19
2017-03-24T02:43:08.850Z,1018.19
2017-03-24T02:44:10.097Z,1018.22
2017-03-24T02:45:11.364Z,1018.27
2017-03-24T02:46:12.597Z,1018.37
2017-03-24T02:47:13.841Z,1018.34
2017-03-24T02:48:15.061Z,1018.36
2017-03-24T02:49:16.408Z,1018.44
2017-03-24T02:50:17.661Z,1018.33
2017-03-24T02:51:18.949Z,1018.4
2017-03-24T02:52:20.196Z,1018.36
2017-03-24T02:53:21.420Z,1018.42
2017-03-24T02:54:22.657Z,1018.37
2017-03-24T02:55:23.908Z,1018.4
2017-03-24T02:56:25.153Z,1018.37
2017-03-24T02:57:26.405Z,1018.44
2017-03-24T02:58:27.725Z,1018.45
2017-03-24T02:59:28.951Z,1018.52
2017-03-24T03:00:30.192Z,1018.51
2017-03-24T03:01:31.427Z,1018.48
2017-03-24T03:02:32.677Z,1018.47
2017-03-24T03:03:33.936Z,1018.49
2017-03-24T03:04:35.198Z,1018.52
2017-03-24T03:05:36.445Z,1018.5
2017-03-24T03:06:37.701Z,1018.56
2017-03-24T03:07:38.917Z,1018.51
2017-03-24T03:08:40.174Z,1018.61
2017-03-24T03:09:41.416Z,1018.6
2017-03-24T03:10:42.650Z,1018.6
2017-03-24T03:11:43.890Z,1018.7
2017-03-24T03:12:45.140Z,1018.67
2017-03-24T03:13:46.372Z,1018.71
2017-03-24T03:14:47.636Z,1018.68
2017-03-24T03:15:48.896Z,1018.7
2017-03-24T03:16:50.137Z,1018.69
2017-03-24T03:17:51.382Z,1018.7
2017-03-24T03:18:52.616Z,1018.78
2017-03-24T03:19:53.853Z,1018.64
2017-03-24T03:20:55.085Z,1018.65
2017-03-24T03:21:56.320Z,1018.61
2017-03-24T03:22:57.653Z,1018.67
2017-03-24T03:23:58.923Z,1018.67
2017-03-24T03:25:00.181Z,1018.69
2017-03-24T03:26:01.420Z,1018.73
2017-03-24T03:27:02.651Z,1018.74
2017-03-24T03:28:03.889Z,1018.78
2017-03-24T03:29:05.195Z,1018.78
2017-03-24T03:30:06.373Z,1018.86
2017-03-24T03:31:07.710Z,1018.88
2017-03-24T03:32:08.940Z,1018.83
2017-03-24T03:33:10.268Z,1018.81
2017-03-24T03:34:11.615Z,1018.91
2017-03-24T03:35:12.764Z,1018.88
2017-03-24T03:36:13.994Z,1018.86
2017-03-24T03:37:15.298Z,1018.87
2017-03-24T03:38:16.531Z,1018.89
2017-03-24T03:39:17.766Z,1018.92
2017-03-24T03:40:19.026Z,1018.95
2017-03-24T03:41:20.313Z,1018.87
2017-03-24T03:42:21.590Z,1018.88
2017-03-24T03:43:22.800Z,1018.89
2017-03-24T03:44:24.028Z,1018.93
2017-03-24T03:45:25.379Z,1018.92
2017-03-24T03:46:26.619Z,1018.94
2017-03-24T03:47:27.869Z,1019
2017-03-24T03:48:29.211Z,1018.98
2017-03-24T03:49:30.429Z,1019.08
2017-03-24T03:50:31.690Z,1019.05
2017-03-24T03:51:32.908Z,1019.07
2017-03-24T03:52:34.147Z,1019.13
2017-03-24T03:53:35.473Z,1019.07
2017-03-24T03:54:36.667Z,1019.13
2017-03-24T03:55:37.921Z,1019.13
2017-03-24T03:56:39.256Z,1019.16
2017-03-24T03:57:40.491Z,1019.16
2017-03-24T03:58:41.734Z,1019.15
2017-03-24T03:59:42.973Z,1019.18
2017-03-24T04:00:44.201Z,1019.17
2017-03-24T04:01:45.559Z,1019.21
2017-03-24T04:02:46.839Z,1019.23
2017-03-24T04:03:48.120Z,1019.16
2017-03-24T04:04:49.317Z,1019.22
2017-03-24T04:05:50.562Z,1019.23
2017-03-24T04:06:51.889Z,1019.23
2017-03-24T04:07:53.206Z,1019.25
2017-03-24T04:08:54.450Z,1019.25
2017-03-24T04:09:55.676Z,1019.23
2017-03-24T04:10:56.925Z,1019.28
2017-03-24T04:11:58.172Z,1019.28
2017-03-24T04:12:59.423Z,1019.32
2017-03-24T04:14:00.665Z,1019.32
2017-03-24T04:15:01.963Z,1019.34
2017-03-24T04:16:03.189Z,1019.33
2017-03-24T04:17:04.416Z,1019.3
2017-03-24T04:18:05.676Z,1019.35
2017-03-24T04:19:06.899Z,1019.34
2017-03-24T04:20:08.148Z,1019.37
2017-03-24T04:21:09.388Z,1019.35
2017-03-24T04:22:10.628Z,1019.32
2017-03-24T04:23:11.867Z,1019.34
2017-03-24T04:24:13.103Z,1019.36
2017-03-24T04:25:14.357Z,1019.38
2017-03-24T04:26:15.581Z,1019.33
2017-03-24T04:27:16.886Z,1019.32
2017-03-24T04:28:18.098Z,1019.34
2017-03-24T04:29:19.362Z,1019.31
2017-03-24T04:30:20.614Z,1019.3
2017-03-24T04:31:21.828Z,1019.4
2017-03-24T04:32:23.070Z,1019.25
2017-03-24T04:33:24.328Z,1019.28
2017-03-24T04:34:25.618Z,1019.25
2017-03-24T04:35:26.965Z,1019.2
2017-03-24T04:36:28.206Z,1019.13
2017-03-24T04:37:29.442Z,1019.15
2017-03-24T04:38:30.700Z,1019.08
2017-03-24T04:39:31.990Z,1019.13
2017-03-24T04:40:33.279Z,1019.15
2017-03-24T04:41:34.534Z,1019.15
2017-03-24T04:42:35.767Z,1019.12
2017-03-24T04:43:37.002Z,1019.14
2017-03-24T04:44:38.239Z,1019.12
2017-03-24T04:45:39.480Z,1019.13
2017-03-24T04:46:40.735Z,1019.12
2017-03-24T04:47:41.962Z,1019.18
2017-03-24T04:48:43.204Z,1019.16
2017-03-24T04:49:44.436Z,1019.18
2017-03-24T04:50:45.673Z,1019.13
2017-03-24T04:51:46.904Z,1019.19
2017-03-24T04:52:48.227Z,1019.23
2017-03-24T04:53:49.441Z,1019.29
2017-03-24T04:54:50.678Z,1019.27
2017-03-24T04:55:51.915Z,1019.33
2017-03-24T04:56:53.151Z,1019.36
2017-03-24T04:57:54.417Z,1019.38
2017-03-24T04:58:55.665Z,1019.39
2017-03-24T04:59:56.975Z,1019.46
2017-03-24T05:00:58.144Z,1019.45
2017-03-24T05:01:59.401Z,1019.48
2017-03-24T05:03:00.641Z,1019.46
2017-03-24T05:04:01.872Z,1019.48
2017-03-24T05:05:03.125Z,1019.48
2017-03-24T05:06:04.358Z,1019.49
2017-03-24T05:07:05.614Z,1019.49
2017-03-24T05:08:06.835Z,1019.52
2017-03-24T05:09:08.079Z,1019.52
2017-03-24T05:10:09.330Z,1019.53
2017-03-24T05:11:10.591Z,1019.53
2017-03-24T05:12:11.983Z,1019.57
2017-03-24T05:13:13.222Z,1019.59
2017-03-24T05:14:14.473Z,1019.58
2017-03-24T05:15:15.703Z,1019.62
2017-03-24T05:16:16.956Z,1019.64
2017-03-24T05:17:18.182Z,1019.63
2017-03-24T05:18:19.779Z,1019.67
2017-03-24T05:19:20.923Z,1019.66
2017-03-24T05:20:22.156Z,1019.69
2017-03-24T05:21:23.400Z,1019.7
2017-03-24T05:22:24.652Z,1019.68
2017-03-24T05:23:25.874Z,1019.72
2017-03-24T05:24:27.121Z,1019.76
2017-03-24T05:25:28.354Z,1019.79
2017-03-24T05:26:29.592Z,1019.8
2017-03-24T05:27:30.865Z,1019.78
2017-03-24T05:28:32.109Z,1019.78
2017-03-24T05:29:33.332Z,1019.78
2017-03-24T05:30:34.622Z,1019.84
2017-03-24T05:31:35.849Z,1019.78
2017-03-24T05:32:37.091Z,1019.78
2017-03-24T05:33:38.326Z,1019.82
2017-03-24T05:34:39.559Z,1019.85
2017-03-24T05:35:40.792Z,1019.86
2017-03-24T05:36:42.072Z,1019.83
2017-03-24T05:37:43.443Z,1019.81
2017-03-24T05:38:44.705Z,1019.8
2017-03-24T05:39:45.952Z,1019.81
2017-03-24T05:40:47.170Z,1019.81
2017-03-24T05:41:48.432Z,1019.82
2017-03-24T05:42:49.655Z,1019.82
2017-03-24T05:43:50.888Z,1019.82
2017-03-24T05:44:52.238Z,1019.79
2017-03-24T05:45:53.478Z,1019.78
2017-03-24T05:46:54.892Z,1019.78
2017-03-24T05:47:56.226Z,1019.81
2017-03-24T05:48:57.498Z,1019.78
2017-03-24T05:49:58.738Z,1019.74
2017-03-24T05:50:59.980Z,1019.77
2017-03-24T05:52:01.265Z,1019.74
2017-03-24T05:53:02.499Z,1019.8
2017-03-24T05:54:03.734Z,1019.72
2017-03-24T05:55:04.970Z,1019.76
2017-03-24T05:56:06.226Z,1019.76
2017-03-24T05:57:07.576Z,1019.75
2017-03-24T05:58:08.807Z,1019.73
2017-03-24T05:59:10.070Z,1019.76
2017-03-24T06:00:11.295Z,1019.74
2017-03-24T06:01:12.540Z,1019.77
2017-03-24T06:02:13.799Z,1019.82
2017-03-24T06:03:15.057Z,1019.88
2017-03-24T06:04:16.310Z,1019.87
2017-03-24T06:05:17.532Z,1019.81
2017-03-24T06:06:18.793Z,1019.84
2017-03-24T06:07:20.049Z,1019.84
2017-03-24T06:08:21.288Z,1019.84
2017-03-24T06:09:22.590Z,1019.93
2017-03-24T06:10:23.972Z,1019.89
2017-03-24T06:11:25.253Z,1019.92
2017-03-24T06:12:26.484Z,1019.84
2017-03-24T06:13:27.738Z,1019.86
2017-03-24T06:14:28.992Z,1019.88
2017-03-24T06:15:30.273Z,1019.94
2017-03-24T06:16:31.542Z,1019.97
2017-03-24T06:17:32.751Z,1020.05
2017-03-24T06:18:33.994Z,1020.05
2017-03-24T06:19:35.244Z,1020.13
2017-03-24T06:20:36.551Z,1020.1
2017-03-24T06:21:37.827Z,1020.12
2017-03-24T06:22:39.090Z,1020.16
2017-03-24T06:23:40.307Z,1020.16
2017-03-24T06:24:41.559Z,1020.16
2017-03-24T06:25:42.798Z,1020.1
2017-03-24T06:26:44.044Z,1020.14
2017-03-24T06:27:45.466Z,1020.23
2017-03-24T06:28:46.608Z,1020.19
2017-03-24T06:29:47.865Z,1020.25
2017-03-24T06:30:49.100Z,1020.23
2017-03-24T06:31:50.674Z,1020.25
2017-03-24T06:32:51.869Z,1020.24
2017-03-24T06:33:53.085Z,1020.34
2017-03-24T06:34:54.357Z,1020.47
2017-03-24T06:35:55.609Z,1020.31
2017-03-24T06:36:56.840Z,1020.37
2017-03-24T06:37:58.088Z,1020.33
2017-03-24T06:38:59.342Z,1020.3
2017-03-24T06:40:00.574Z,1020.36
2017-03-24T06:41:01.812Z,1020.38
2017-03-24T06:42:03.057Z,1020.43
2017-03-24T06:43:04.333Z,1020.46
2017-03-24T06:44:05.560Z,1020.43
2017-03-24T06:45:06.830Z,1020.46
2017-03-24T06:46:08.092Z,1020.53
2017-03-24T06:47:09.336Z,1020.54
2017-03-24T06:48:10.579Z,1020.61
2017-03-24T06:49:11.850Z,1020.6
2017-03-24T06:50:13.070Z,1020.63
2017-03-24T06:51:14.315Z,1020.71
2017-03-24T06:52:15.629Z,1020.75
2017-03-24T06:53:16.873Z,1020.71
2017-03-24T06:54:18.171Z,1020.77
2017-03-24T06:55:19.417Z,1020.82
2017-03-24T06:56:20.664Z,1020.75
2017-03-24T06:57:21.909Z,1020.86
2017-03-24T06:58:23.147Z,1020.79
2017-03-24T06:59:24.513Z,1020.82
2017-03-24T07:00:25.800Z,1020.82
2017-03-24T07:01:27.071Z,1020.86
2017-03-24T07:02:28.296Z,1020.86
2017-03-24T07:03:29.555Z,1020.93
2017-03-24T07:04:30.799Z,1020.89
2017-03-24T07:05:32.053Z,1020.98
2017-03-24T07:06:33.315Z,1020.99
2017-03-24T07:07:34.543Z,1020.93
2017-03-24T07:08:35.802Z,1020.93
2017-03-24T07:09:37.041Z,1021.07
2017-03-24T07:10:38.330Z,1020.92
2017-03-24T07:11:39.592Z,1020.96
2017-03-24T07:12:40.873Z,1021.03
2017-03-24T07:13:42.189Z,1020.96
2017-03-24T07:14:43.425Z,1020.99
2017-03-24T07:15:44.660Z,1020.92
2017-03-24T07:16:45.890Z,1020.92
2017-03-24T07:17:47.127Z,1020.94
2017-03-24T07:18:48.386Z,1020.88
2017-03-24T07:19:49.631Z,1020.88
2017-03-24T07:20:50.869Z,1020.88
2017-03-24T07:21:52.112Z,1020.92
2017-03-24T07:22:53.370Z,1020.92
2017-03-24T07:23:54.602Z,1020.89
2017-03-24T07:24:55.852Z,1020.93
2017-03-24T07:25:57.211Z,1020.89
2017-03-24T07:26:58.339Z,1020.94
2017-03-24T07:27:59.573Z,1020.91
2017-03-24T07:29:00.817Z,1020.92
2017-03-24T07:30:02.069Z,1020.86
2017-03-24T07:31:03.311Z,1020.87
2017-03-24T07:32:04.642Z,1020.84
2017-03-24T07:33:05.931Z,1020.83
2017-03-24T07:34:07.261Z,1020.9
2017-03-24T07:35:08.500Z,1020.79
2017-03-24T07:36:09.769Z,1020.74
2017-03-24T07:37:11.020Z,1020.77
2017-03-24T07:38:12.271Z,1020.83
2017-03-24T07:39:13.539Z,1020.75
2017-03-24T07:40:14.776Z,1020.75
2017-03-24T07:41:16.029Z,1020.69
2017-03-24T07:42:17.282Z,1020.75
2017-03-24T07:43:18.566Z,1020.73
2017-03-24T07:44:19.816Z,1020.7
2017-03-24T07:45:21.115Z,1020.66
2017-03-24T07:46:22.363Z,1020.63
2017-03-24T07:47:23.614Z,1020.63
2017-03-24T07:48:24.877Z,1020.55
2017-03-24T07:49:26.113Z,1020.59
2017-03-24T07:50:27.382Z,1020.68
2017-03-24T07:51:28.625Z,1020.79
2017-03-24T07:52:29.879Z,1020.68
2017-03-24T07:53:31.127Z,1020.64
2017-03-24T07:54:32.393Z,1020.7
2017-03-24T07:55:33.621Z,1020.77
2017-03-24T07:56:34.863Z,1020.74
2017-03-24T07:57:36.172Z,1020.73
2017-03-24T07:58:37.394Z,1020.77
2017-03-24T07:59:38.640Z,1020.76
2017-03-24T08:00:39.900Z,1020.81
2017-03-24T08:01:41.128Z,1020.89
2017-03-24T08:02:42.390Z,1020.95
2017-03-24T08:03:43.652Z,1020.88
2017-03-24T08:04:44.902Z,1020.85
2017-03-24T08:05:46.128Z,1020.92
2017-03-24T08:06:47.383Z,1020.93
2017-03-24T08:07:48.624Z,1020.97
2017-03-24T08:08:49.883Z,1020.92
2017-03-24T08:09:51.122Z,1020.9
2017-03-24T08:10:52.444Z,1020.9
2017-03-24T08:11:53.740Z,1020.97
2017-03-24T08:12:54.991Z,1020.98
2017-03-24T08:13:56.269Z,1020.93
2017-03-24T08:14:57.535Z,1021.14
2017-03-24T08:15:58.770Z,1020.92
2017-03-24T08:17:00.027Z,1020.95
2017-03-24T08:18:01.314Z,1020.86
2017-03-24T08:19:02.562Z,1020.91
2017-03-24T08:20:03.809Z,1020.86
2017-03-24T08:21:05.043Z,1020.9
2017-03-24T08:22:06.411Z,1020.9
2017-03-24T08:23:07.742Z,1020.89
2017-03-24T08:24:09.011Z,1020.95
2017-03-24T08:25:10.239Z,1021.02
2017-03-24T08:26:11.482Z,1021.15
2017-03-24T08:27:12.759Z,1021.03
2017-03-24T08:28:13.981Z,1021.13
2017-03-24T08:29:15.226Z,1021.14
2017-03-24T08:30:16.482Z,1021.25
2017-03-24T08:31:17.735Z,1021.22
2017-03-24T08:32:19.011Z,1021.16
2017-03-24T08:33:20.240Z,1021.38
2017-03-24T08:34:21.483Z,1021.38
2017-03-24T08:35:22.750Z,1021.45
2017-03-24T08:36:24.001Z,1021.49
2017-03-24T08:37:25.369Z,1021.57
2017-03-24T08:38:26.618Z,1021.61
2017-03-24T08:39:27.872Z,1021.66
2017-03-24T08:40:29.114Z,1021.68
2017-03-24T08:41:30.363Z,1021.87
2017-03-24T08:42:31.609Z,1021.86
2017-03-24T08:43:32.852Z,1021.95
2017-03-24T08:44:34.209Z,1022
2017-03-24T08:45:35.534Z,1021.99
2017-03-24T08:46:36.791Z,1022.08
2017-03-24T08:47:38.018Z,1022.16
2017-03-24T08:48:39.266Z,1022.25
2017-03-24T08:49:40.520Z,1022.23
2017-03-24T08:50:41.847Z,1022.21
2017-03-24T08:51:43.091Z,1022.05
2017-03-24T08:52:44.327Z,1022.09
2017-03-24T08:53:45.584Z,1021.98
2017-03-24T08:54:46.836Z,1022.02
2017-03-24T08:55:48.084Z,1021.89
2017-03-24T08:56:49.387Z,1021.79
2017-03-24T08:57:50.645Z,1021.87
2017-03-24T08:58:51.891Z,1021.63
2017-03-24T08:59:53.185Z,1021.76
2017-03-24T09:00:54.423Z,1021.64
2017-03-24T09:01:55.756Z,1021.66
2017-03-24T09:02:56.999Z,1021.56
2017-03-24T09:03:58.253Z,1021.59
2017-03-24T09:04:59.498Z,1021.65
2017-03-24T09:06:00.748Z,1021.66
2017-03-24T09:07:02.125Z,1021.6
2017-03-24T09:08:03.468Z,1021.62
2017-03-24T09:09:04.740Z,1021.8
2017-03-24T09:10:05.970Z,1021.73
2017-03-24T09:11:07.219Z,1021.8
2017-03-24T09:12:08.470Z,1021.68
2017-03-24T09:13:09.742Z,1021.95
2017-03-24T09:14:11.012Z,1021.97
2017-03-24T09:15:12.267Z,1022.22
2017-03-24T09:16:13.516Z,1022.02
2017-03-24T09:17:14.757Z,1021.85
2017-03-24T09:18:16.006Z,1022.19
2017-03-24T09:19:17.260Z,1022.02
2017-03-24T09:20:18.539Z,1022.04
2017-03-24T09:21:20.063Z,1022.1
2017-03-24T09:22:21.301Z,1022.15
2017-03-24T09:23:22.564Z,1022.36
2017-03-24T09:24:23.838Z,1022.15
2017-03-24T09:25:25.092Z,1022.13
2017-03-24T09:26:26.479Z,1022.18
2017-03-24T09:27:27.707Z,1022.27
2017-03-24T09:28:28.967Z,1022.27
2017-03-24T09:29:30.226Z,1022.49
2017-03-24T09:30:31.486Z,1022.78
2017-03-24T09:31:32.806Z,1022.5
2017-03-24T09:32:34.084Z,1022.51
2017-03-24T09:33:35.545Z,1022.53
2017-03-24T09:34:36.818Z,1022.4
2017-03-24T09:35:38.052Z,1022.51
2017-03-24T09:36:39.301Z,1022.36
2017-03-24T09:37:40.582Z,1022.21
2017-03-24T09:38:41.913Z,1022.47
2017-03-24T09:39:43.206Z,1022.51
2017-03-24T09:40:44.457Z,1022.57
2017-03-24T09:41:45.866Z,1022.36
2017-03-24T09:42:47.063Z,1022.77
2017-03-24T09:43:48.294Z,1022.78
2017-03-24T09:44:49.575Z,1022.99
2017-03-24T09:45:50.814Z,1023.35
2017-03-24T09:46:52.122Z,1023.24
2017-03-24T09:47:53.363Z,1023.31
2017-03-24T09:48:54.620Z,1023.32
2017-03-24T09:49:55.943Z,1023.27
2017-03-24T09:50:57.195Z,1023.4
2017-03-24T09:51:58.448Z,1023.47
2017-03-24T09:52:59.737Z,1023.33
2017-03-24T09:54:01.044Z,1023.42
2017-03-24T09:55:02.430Z,1023.46
2017-03-24T09:56:03.763Z,1023.36
2017-03-24T09:57:05.000Z,1023.4
2017-03-24T09:58:06.257Z,1023.26
2017-03-24T09:59:07.561Z,1023.29
2017-03-24T10:00:08.829Z,1023.31
2017-03-24T10:01:10.092Z,1023.22
2017-03-24T10:02:11.356Z,1023.29
2017-03-24T10:03:12.604Z,1023.24
2017-03-24T10:04:13.855Z,1023.31
2017-03-24T10:05:15.107Z,1023.13
2017-03-24T10:06:16.363Z,1023.15
2017-03-24T10:07:17.623Z,1023.16
2017-03-24T10:08:18.884Z,1023.12
2017-03-24T10:09:20.166Z,1023.05
2017-03-24T10:10:21.445Z,1023.08
2017-03-24T10:11:22.706Z,1023.13
2017-03-24T10:12:24.044Z,1023.12
2017-03-24T10:13:25.313Z,1023.09
2017-03-24T10:14:26.581Z,1023.06
2017-03-24T10:15:27.908Z,1023.1
2017-03-24T10:16:29.175Z,1023.09
2017-03-24T10:17:30.439Z,1023.03
2017-03-24T10:18:31.726Z,1023.06
2017-03-24T10:19:32.989Z,1023.06
2017-03-24T10:20:34.283Z,1023.1
2017-03-24T10:21:35.744Z,1023.22
2017-03-24T10:22:37.037Z,1023.23
2017-03-24T10:23:38.390Z,1023.25
2017-03-24T10:24:39.682Z,1023.31
2017-03-24T10:25:40.959Z,1023.35
2017-03-24T10:26:42.197Z,1023.29
2017-03-24T10:27:43.456Z,1023.26
2017-03-24T10:28:44.716Z,1023.35
2017-03-24T10:29:45.959Z,1023.17
2017-03-24T10:30:47.226Z,1023.23
2017-03-24T10:31:48.505Z,1023.11
2017-03-24T10:32:49.798Z,1023.11
2017-03-24T10:33:51.043Z,1023.04
2017-03-24T10:34:52.312Z,1023.25
2017-03-24T10:35:53.539Z,1023.11
2017-03-24T10:36:54.798Z,1023.21
2017-03-24T10:37:56.085Z,1023.21
2017-03-24T10:38:57.350Z,1023.34
2017-03-24T10:39:58.601Z,1023.32
2017-03-24T10:40:59.858Z,1023.31
2017-03-24T10:42:01.103Z,1023.3
2017-03-24T10:43:02.361Z,1023.25
2017-03-24T10:44:03.642Z,1023.24
2017-03-24T10:45:04.890Z,1023.3
2017-03-24T10:46:06.148Z,1023.13
2017-03-24T10:47:07.400Z,1023.17
2017-03-24T10:48:08.651Z,1023.1
2017-03-24T10:49:09.936Z,1023.15
2017-03-24T10:50:11.151Z,1023.16
2017-03-24T10:51:12.425Z,1023.19
2017-03-24T10:52:13.820Z,1023.31
2017-03-24T10:53:15.051Z,1023.37
2017-03-24T10:54:16.314Z,1023.44
2017-03-24T10:55:17.719Z,1023.34
2017-03-24T10:56:18.869Z,1023.33
2017-03-24T10:57:20.201Z,1023.31
2017-03-24T10:58:21.443Z,1023.29
2017-03-24T10:59:22.696Z,1023.32
2017-03-24T11:00:23.938Z,1023.31
2017-03-24T11:01:25.201Z,1023.26
2017-03-24T11:02:26.556Z,1023.28
2017-03-24T11:03:27.897Z,1023.28
2017-03-24T11:04:29.116Z,1023.52
2017-03-24T11:05:30.379Z,1023.33
2017-03-24T11:06:31.624Z,1023.3
2017-03-24T11:07:32.891Z,1023.39
2017-03-24T11:08:34.245Z,1023.49
2017-03-24T11:09:35.572Z,1023.32
2017-03-24T11:10:36.770Z,1023.25
2017-03-24T11:11:38.036Z,1023.16
2017-03-24T11:12:39.260Z,1023.28
2017-03-24T11:13:40.511Z,1023.38
2017-03-24T11:14:41.788Z,1023.1
2017-03-24T11:15:43.045Z,1023.08
2017-03-24T11:16:44.265Z,1023.19
2017-03-24T11:17:45.515Z,1023.2
2017-03-24T11:18:46.764Z,1023.31
2017-03-24T11:19:48.199Z,1023.3
2017-03-24T11:20:49.482Z,1023.29
2017-03-24T11:21:50.720Z,1023.2
2017-03-24T11:22:51.964Z,1023.16
2017-03-24T11:23:53.236Z,1023.18
2017-03-24T11:24:54.503Z,1023.12
2017-03-24T11:25:55.815Z,1023.13
2017-03-24T11:26:57.056Z,1023.08
2017-03-24T11:27:58.314Z,1023.06
2017-03-24T11:28:59.643Z,1023.01
2017-03-24T11:30:00.900Z,1022.98
2017-03-24T11:31:02.152Z,1023.02
2017-03-24T11:32:03.390Z,1022.98
2017-03-24T11:33:04.834Z,1023.05
2017-03-24T11:34:06.102Z,1023.06
2017-03-24T11:35:07.357Z,1023.04
2017-03-24T11:36:08.610Z,1023.1
2017-03-24T11:37:09.868Z,1023.17
2017-03-24T11:38:11.107Z,1023.03
2017-03-24T11:39:12.533Z,1023.02
2017-03-24T11:40:13.766Z,1022.96
2017-03-24T11:41:15.225Z,1022.88
2017-03-24T11:42:16.508Z,1022.91
2017-03-24T11:43:17.767Z,1023.03
2017-03-24T11:44:19.032Z,1023
2017-03-24T11:45:20.358Z,1022.92
2017-03-24T11:46:21.720Z,1023.03
2017-03-24T11:47:23.018Z,1023.05
2017-03-24T11:48:24.257Z,1022.97
2017-03-24T11:49:25.524Z,1022.96
2017-03-24T11:50:26.774Z,1022.93
2017-03-24T11:51:28.059Z,1022.87
2017-03-24T11:52:29.280Z,1022.87
2017-03-24T11:53:30.519Z,1022.86
2017-03-24T11:54:31.774Z,1022.94
2017-03-24T11:55:33.112Z,1022.92
2017-03-24T11:56:34.384Z,1022.91
2017-03-24T11:57:35.630Z,1023.03
2017-03-24T11:58:36.882Z,1022.96
2017-03-24T11:59:38.140Z,1022.91
2017-03-24T12:00:39.363Z,1022.93
2017-03-24T12:01:40.615Z,1022.9
2017-03-24T12:02:42.003Z,1022.94
2017-03-24T12:03:43.237Z,1022.95
2017-03-24T12:04:44.478Z,1022.91
2017-03-24T12:05:45.722Z,1022.9
2017-03-24T12:06:46.993Z,1022.83
2017-03-24T12:07:48.338Z,1022.92
2017-03-24T12:08:49.573Z,1022.94
2017-03-24T12:09:50.810Z,1022.93
2017-03-24T12:10:52.073Z,1022.93
2017-03-24T12:11:53.307Z,1022.92
2017-03-24T12:12:54.611Z,1022.96
2017-03-24T12:13:55.932Z,1022.86
2017-03-24T12:14:57.204Z,1022.88
2017-03-24T12:15:58.457Z,1022.85
2017-03-24T12:16:59.816Z,1022.89
2017-03-24T12:18:01.045Z,1022.79
2017-03-24T12:19:02.458Z,1022.78
2017-03-24T12:20:03.683Z,1022.86
2017-03-24T12:21:04.921Z,1022.81
2017-03-24T12:22:06.200Z,1022.75
2017-03-24T12:23:07.461Z,1022.68
2017-03-24T12:24:08.738Z,1022.65